createdAt,value
2019-03-29T00:02:21.415Z,74.70
2019-03-29T00:04:59.858Z,74.60
2019-03-29T00:07:38.957Z,74.70
2019-03-29T00:09:56.527Z,74.60
2019-03-29T00:12:22.581Z,74.70
2019-03-29T00:14:48.682Z,74.70
2019-03-29T00:17:18.143Z,74.80
2019-03-29T00:19:44.502Z,74.80
2019-03-29T00:22:10.610Z,74.80
2019-03-29T00:24:36.683Z,74.80
2019-03-29T00:27:02.769Z,75.00
2019-03-29T00:29:29.948Z,75.00
2019-03-29T00:31:56.274Z,74.90
2019-03-29T00:34:22.319Z,74.80
2019-03-29T00:36:48.352Z,74.90
2019-03-29T00:39:15.018Z,74.90
2019-03-29T00:41:41.368Z,74.90
2019-03-29T00:44:10.244Z,74.80
2019-03-29T00:46:36.276Z,74.90
2019-03-29T00:49:02.374Z,74.80
2019-03-29T00:51:28.485Z,75.00
2019-03-29T00:54:01.879Z,75.10
2019-03-29T00:56:28.182Z,75.00
2019-03-29T00:58:55.134Z,75.00
2019-03-29T01:01:21.277Z,75.10
2019-03-29T01:03:53.535Z,75.60
2019-03-29T01:06:19.579Z,75.10
2019-03-29T01:08:54.996Z,75.30
2019-03-29T01:11:21.053Z,75.10
2019-03-29T01:13:47.171Z,75.20
2019-03-29T01:16:16.042Z,75.00
2019-03-29T01:18:42.321Z,75.00
2019-03-29T01:21:08.504Z,75.20
2019-03-29T01:23:34.791Z,75.10
2019-03-29T01:26:16.371Z,75.10
2019-03-29T01:28:42.579Z,75.10
2019-03-29T01:31:08.846Z,75.10
2019-03-29T01:33:35.087Z,75.10
2019-03-29T01:36:02.041Z,75.00
2019-03-29T01:38:28.371Z,75.20
2019-03-29T01:40:54.735Z,75.10
2019-03-29T01:43:20.952Z,75.00
2019-03-29T01:45:47.125Z,75.10
2019-03-29T01:48:13.315Z,75.10
2019-03-29T01:50:39.530Z,74.90
2019-03-29T01:53:05.724Z,75.00
2019-03-29T01:55:31.940Z,75.00
2019-03-29T01:57:58.924Z,75.10
2019-03-29T02:00:30.280Z,75.00
2019-03-29T02:02:59.525Z,75.00
2019-03-29T02:05:25.830Z,74.90
2019-03-29T02:07:57.980Z,75.00
2019-03-29T02:10:24.162Z,75.00
2019-03-29T02:12:50.576Z,74.90
2019-03-29T02:15:16.810Z,75.00
2019-03-29T02:17:43.070Z,74.90
2019-03-29T02:20:09.469Z,74.90
2019-03-29T02:22:36.284Z,75.30
2019-03-29T02:25:05.036Z,74.80
2019-03-29T02:27:31.247Z,74.80
2019-03-29T02:29:57.423Z,74.80
2019-03-29T02:32:24.930Z,74.80
2019-03-29T02:34:53.825Z,74.80
2019-03-29T02:37:20.099Z,74.70
2019-03-29T02:39:46.290Z,74.90
2019-03-29T02:42:13.838Z,74.90
2019-03-29T02:44:40.660Z,75.00
2019-03-29T02:47:06.840Z,74.90
2019-03-29T02:49:33.057Z,74.90
2019-03-29T02:52:00.335Z,74.90
2019-03-29T02:54:26.541Z,74.80
2019-03-29T02:56:55.325Z,74.80
2019-03-29T02:59:21.531Z,74.70
2019-03-29T03:01:47.710Z,74.80
2019-03-29T03:04:13.963Z,74.80
2019-03-29T03:06:40.133Z,74.70
2019-03-29T03:09:13.677Z,74.80
2019-03-29T03:11:34.788Z,74.70
2019-03-29T03:14:01.006Z,74.70
2019-03-29T03:16:27.185Z,74.80
2019-03-29T03:18:53.464Z,74.80
2019-03-29T03:21:22.446Z,74.90
2019-03-29T03:23:48.725Z,74.80
2019-03-29T03:26:15.027Z,74.90
2019-03-29T03:28:41.274Z,75.00
2019-03-29T03:31:07.499Z,75.00
2019-03-29T03:33:33.684Z,74.80
2019-03-29T03:35:59.865Z,74.90
2019-03-29T03:38:26.037Z,75.00
2019-03-29T03:40:52.225Z,75.00
2019-03-29T03:43:18.418Z,75.00
2019-03-29T03:45:44.623Z,74.90
2019-03-29T03:48:11.101Z,74.90
2019-03-29T03:50:40.854Z,75.00
2019-03-29T03:53:08.003Z,75.10
2019-03-29T03:55:36.534Z,75.20
2019-03-29T03:58:11.955Z,75.00
2019-03-29T04:00:47.764Z,75.00
2019-03-29T04:03:14.027Z,75.10
2019-03-29T04:05:40.207Z,75.00
2019-03-29T04:08:06.391Z,75.00
2019-03-29T04:10:32.616Z,75.10
2019-03-29T04:12:58.835Z,75.10
2019-03-29T04:15:25.035Z,75.10
2019-03-29T04:17:51.216Z,75.00
2019-03-29T04:20:17.404Z,75.00
2019-03-29T04:22:43.627Z,75.00
2019-03-29T04:25:09.886Z,75.00
2019-03-29T04:27:36.108Z,75.10
2019-03-29T04:30:17.507Z,75.00
2019-03-29T04:32:46.215Z,75.20
2019-03-29T04:35:12.417Z,75.10
2019-03-29T04:37:38.587Z,75.20
2019-03-29T04:40:07.889Z,75.20
2019-03-29T04:42:51.392Z,75.20
2019-03-29T04:45:17.601Z,75.10
2019-03-29T04:47:43.755Z,75.10
2019-03-29T04:50:12.663Z,75.10
2019-03-29T04:52:38.825Z,75.10
2019-03-29T04:55:05.550Z,75.80
2019-03-29T04:57:31.740Z,75.00
2019-03-29T04:59:58.111Z,75.00
2019-03-29T05:02:24.294Z,75.10
2019-03-29T05:04:50.481Z,75.00
2019-03-29T05:07:16.702Z,75.10
2019-03-29T05:09:45.721Z,75.10
2019-03-29T05:12:11.971Z,75.20
2019-03-29T05:14:38.166Z,75.20
2019-03-29T05:17:04.367Z,75.10
2019-03-29T05:19:30.533Z,75.10
2019-03-29T05:21:59.556Z,75.90
2019-03-29T05:24:25.731Z,75.60
2019-03-29T05:26:51.910Z,75.30
2019-03-29T05:29:18.078Z,75.30
2019-03-29T05:31:44.284Z,75.20
2019-03-29T05:34:10.561Z,75.30
2019-03-29T05:36:36.794Z,75.30
2019-03-29T05:39:04.665Z,75.30
2019-03-29T05:41:49.436Z,75.30
2019-03-29T05:44:15.609Z,75.30
2019-03-29T05:46:41.801Z,75.30
2019-03-29T05:49:07.993Z,75.30
2019-03-29T05:51:34.163Z,75.40
2019-03-29T05:54:00.336Z,75.50
2019-03-29T05:56:26.554Z,75.50
2019-03-29T05:58:52.850Z,75.50
2019-03-29T06:01:31.459Z,75.50
2019-03-29T06:03:57.679Z,75.50
2019-03-29T06:06:23.915Z,75.60
2019-03-29T06:08:50.113Z,75.70
2019-03-29T06:11:16.335Z,75.70
2019-03-29T06:14:00.913Z,75.80
2019-03-29T06:16:38.274Z,75.90
2019-03-29T06:19:13.526Z,75.90
2019-03-29T06:21:39.922Z,75.90
2019-03-29T06:24:06.147Z,76.10
2019-03-29T06:26:32.359Z,76.10
2019-03-29T06:28:58.547Z,76.30
2019-03-29T06:31:24.768Z,77.00
2019-03-29T06:33:51.002Z,76.30
2019-03-29T06:36:18.726Z,76.40
2019-03-29T06:38:55.112Z,76.70
2019-03-29T06:41:21.374Z,76.70
2019-03-29T06:43:47.589Z,76.80
2019-03-29T06:46:13.772Z,76.80
2019-03-29T06:48:39.976Z,77.00
2019-03-29T06:51:06.291Z,77.10
2019-03-29T06:53:32.448Z,77.90
2019-03-29T06:55:59.452Z,77.30
2019-03-29T06:58:25.814Z,77.40
2019-03-29T07:00:51.991Z,77.50
2019-03-29T07:03:18.722Z,77.70
2019-03-29T07:05:47.496Z,77.70
2019-03-29T07:08:13.680Z,78.10
2019-03-29T07:10:39.829Z,77.90
2019-03-29T07:13:06.007Z,78.00
2019-03-29T07:15:32.281Z,78.20
2019-03-29T07:20:27.992Z,77.70
2019-03-29T07:22:54.179Z,78.10
2019-03-29T07:25:20.375Z,78.00
2019-03-29T07:27:52.004Z,78.00
2019-03-29T07:30:15.204Z,77.90
2019-03-29T07:32:41.398Z,77.90
2019-03-29T07:35:07.802Z,77.60
2019-03-29T07:37:33.965Z,77.40
2019-03-29T07:40:00.390Z,77.10
2019-03-29T07:42:39.165Z,77.00
2019-03-29T07:45:09.892Z,76.90
2019-03-29T07:47:53.089Z,76.60
2019-03-29T07:50:19.368Z,76.50
2019-03-29T07:52:45.649Z,76.30
2019-03-29T07:55:11.870Z,76.10
2019-03-29T07:57:38.063Z,75.90
2019-03-29T08:00:05.644Z,75.60
2019-03-29T08:02:50.136Z,75.30
2019-03-29T08:05:17.877Z,75.10
2019-03-29T08:07:47.060Z,74.90
2019-03-29T08:10:24.539Z,73.60
2019-03-29T08:12:44.334Z,73.20
2019-03-29T08:15:10.837Z,73.10
2019-03-29T08:17:39.798Z,73.10
2019-03-29T08:20:37.465Z,72.90
2019-03-29T08:22:53.470Z,72.80
2019-03-29T08:25:22.748Z,72.40
2019-03-29T08:28:04.263Z,72.00
2019-03-29T08:30:30.711Z,71.70
2019-03-29T08:32:57.047Z,71.40
2019-03-29T08:35:23.343Z,71.40
2019-03-29T08:37:49.538Z,71.40
2019-03-29T08:40:15.732Z,71.30
2019-03-29T08:42:42.485Z,71.20
2019-03-29T08:45:17.937Z,71.00
2019-03-29T08:47:44.287Z,71.20
2019-03-29T08:50:10.909Z,71.10
2019-03-29T08:52:37.262Z,70.70
2019-03-29T08:55:05.014Z,70.90
2019-03-29T08:57:31.235Z,70.80
2019-03-29T08:59:57.401Z,70.30
2019-03-29T09:02:25.285Z,70.20
2019-03-29T09:04:57.749Z,70.00
2019-03-29T09:07:24.239Z,69.80
2019-03-29T09:09:50.734Z,69.50
2019-03-29T09:12:19.791Z,69.50
2019-03-29T09:14:45.982Z,69.50
2019-03-29T09:17:12.221Z,69.20
2019-03-29T09:19:57.422Z,69.10
2019-03-29T09:22:42.569Z,68.80
2019-03-29T09:25:09.026Z,68.50
2019-03-29T09:27:53.898Z,68.30
2019-03-29T09:30:20.216Z,68.10
2019-03-29T09:33:05.201Z,67.90
2019-03-29T09:35:31.364Z,67.90
2019-03-29T09:37:57.660Z,67.50
2019-03-29T09:40:42.714Z,67.50
2019-03-29T09:43:09.021Z,67.50
2019-03-29T09:45:53.728Z,67.30
2019-03-29T09:48:35.223Z,67.40
2019-03-29T09:51:01.389Z,67.60
2019-03-29T09:53:27.663Z,69.10
2019-03-29T09:55:53.855Z,72.90
2019-03-29T09:58:20.072Z,80.20
2019-03-29T10:01:04.823Z,78.80
2019-03-29T10:03:31.091Z,72.70
2019-03-29T10:05:57.330Z,66.90
2019-03-29T10:08:26.115Z,60.00
2019-03-29T10:10:52.469Z,56.70
2019-03-29T10:13:18.757Z,53.10
2019-03-29T10:15:45.057Z,49.60
2019-03-29T10:18:13.835Z,46.00
2019-03-29T10:20:58.818Z,42.80
2019-03-29T10:23:27.643Z,40.30
2019-03-29T10:25:53.812Z,39.90
2019-03-29T10:28:20.512Z,41.10
2019-03-29T10:30:49.637Z,42.70
2019-03-29T10:33:15.881Z,43.60
2019-03-29T10:36:00.719Z,45.00
2019-03-29T10:38:26.932Z,46.20
2019-03-29T10:40:53.189Z,47.50
2019-03-29T10:43:19.395Z,48.70
2019-03-29T10:45:45.673Z,49.20
2019-03-29T10:48:11.887Z,49.60
2019-03-29T10:50:38.084Z,49.90
2019-03-29T10:53:04.308Z,50.10
2019-03-29T10:55:30.501Z,51.20
2019-03-29T10:57:56.683Z,52.40
2019-03-29T11:00:34.751Z,57.00
2019-03-29T11:03:00.988Z,56.60
2019-03-29T11:05:27.144Z,52.90
2019-03-29T11:07:53.330Z,47.80
2019-03-29T11:10:31.612Z,41.90
2019-03-29T11:13:11.768Z,41.20
2019-03-29T11:15:26.567Z,41.10
2019-03-29T11:17:55.614Z,38.20
2019-03-29T11:20:21.843Z,37.50
2019-03-29T11:22:48.114Z,35.00
2019-03-29T11:25:14.351Z,36.10
2019-03-29T11:27:40.526Z,34.30
2019-03-29T11:30:07.038Z,32.70
2019-03-29T11:32:33.646Z,30.70
2019-03-29T11:35:03.814Z,30.70
2019-03-29T11:37:48.529Z,32.60
2019-03-29T11:40:14.809Z,33.00
2019-03-29T11:42:41.005Z,34.20
2019-03-29T11:45:07.496Z,36.70
2019-03-29T11:47:52.014Z,36.80
2019-03-29T11:50:18.403Z,35.10
2019-03-29T11:52:44.735Z,34.20
2019-03-29T11:55:10.966Z,33.00
2019-03-29T11:57:40.133Z,32.70
2019-03-29T12:00:09.224Z,33.20
2019-03-29T12:02:35.380Z,33.80
2019-03-29T12:05:01.791Z,33.70
2019-03-29T12:07:28.066Z,33.70
2019-03-29T12:09:54.526Z,34.50
2019-03-29T12:12:39.224Z,35.60
2019-03-29T12:15:06.992Z,36.50
2019-03-29T12:17:33.232Z,37.10
2019-03-29T12:19:59.465Z,36.70
2019-03-29T12:22:25.871Z,37.60
2019-03-29T12:25:05.855Z,37.30
2019-03-29T12:27:34.585Z,37.90
2019-03-29T12:30:00.864Z,38.60
2019-03-29T12:32:27.402Z,38.70
2019-03-29T12:34:56.661Z,39.40
2019-03-29T12:37:25.626Z,39.50
2019-03-29T12:39:51.828Z,40.10
2019-03-29T12:42:18.050Z,40.00
2019-03-29T12:44:44.301Z,39.70
2019-03-29T12:47:10.479Z,39.20
2019-03-29T12:49:36.666Z,40.10
2019-03-29T12:52:02.871Z,40.70
2019-03-29T12:54:29.083Z,41.60
2019-03-29T12:56:55.439Z,41.90
2019-03-29T12:59:21.751Z,42.00
2019-03-29T13:01:48.243Z,41.10
2019-03-29T13:04:26.623Z,41.10
2019-03-29T13:06:52.800Z,40.00
2019-03-29T13:09:19.020Z,39.70
2019-03-29T13:11:45.233Z,40.20
2019-03-29T13:14:14.135Z,41.00
2019-03-29T13:16:40.372Z,40.00
2019-03-29T13:19:06.564Z,38.60
2019-03-29T13:21:32.961Z,36.80
2019-03-29T13:23:59.137Z,35.60
2019-03-29T13:26:25.488Z,36.80
2019-03-29T13:28:51.781Z,36.30
2019-03-29T13:31:20.658Z,35.40
2019-03-29T13:33:46.953Z,34.30
2019-03-29T13:36:13.211Z,34.50
2019-03-29T13:38:42.245Z,32.70
2019-03-29T13:41:08.535Z,33.30
2019-03-29T13:43:34.732Z,31.00
2019-03-29T13:46:19.462Z,29.80
2019-03-29T13:48:45.665Z,29.10
2019-03-29T13:51:11.853Z,30.40
2019-03-29T13:53:38.045Z,29.80
2019-03-29T13:56:04.432Z,31.40
2019-03-29T13:58:48.997Z,30.80
2019-03-29T14:01:15.441Z,29.80
2019-03-29T14:03:41.636Z,30.00
2019-03-29T14:06:07.822Z,31.50
2019-03-29T14:08:34.011Z,32.20
2019-03-29T14:11:00.190Z,33.00
2019-03-29T14:13:26.368Z,33.30
2019-03-29T14:15:52.569Z,32.90
2019-03-29T14:18:18.828Z,32.20
2019-03-29T14:20:45.154Z,32.00
2019-03-29T14:23:11.455Z,32.40
2019-03-29T14:25:37.681Z,32.60
2019-03-29T14:28:16.226Z,35.00
2019-03-29T14:30:42.455Z,35.80
2019-03-29T14:33:08.685Z,34.90
2019-03-29T14:35:34.970Z,33.90
2019-03-29T14:38:01.449Z,33.30
2019-03-29T14:40:27.616Z,31.90
2019-03-29T14:42:53.786Z,31.30
2019-03-29T14:45:19.970Z,32.50
2019-03-29T14:47:46.154Z,32.80
2019-03-29T14:50:13.031Z,33.10
2019-03-29T14:52:39.282Z,33.80
2019-03-29T14:55:05.753Z,34.20
2019-03-29T14:57:31.963Z,34.30
2019-03-29T14:59:58.249Z,34.60
2019-03-29T15:02:27.317Z,35.50
2019-03-29T15:04:53.498Z,34.60
2019-03-29T15:07:19.826Z,35.40
2019-03-29T15:09:46.739Z,35.60
2019-03-29T15:12:13.108Z,35.90
2019-03-29T15:14:39.276Z,36.10
2019-03-29T15:17:05.557Z,36.50
2019-03-29T15:19:31.744Z,37.00
2019-03-29T15:21:58.042Z,36.40
2019-03-29T15:24:24.210Z,36.30
2019-03-29T15:26:50.391Z,36.50
2019-03-29T15:29:16.836Z,36.90
2019-03-29T15:31:43.188Z,37.10
2019-03-29T15:34:12.099Z,37.40
2019-03-29T15:36:38.317Z,37.60
2019-03-29T15:39:05.332Z,37.80
2019-03-29T15:41:31.516Z,38.10
2019-03-29T15:43:57.700Z,38.30
2019-03-29T15:46:43.109Z,38.20
2019-03-29T15:49:28.071Z,38.20
2019-03-29T15:51:54.271Z,38.30
2019-03-29T15:54:20.699Z,38.70
2019-03-29T15:57:02.321Z,39.10
2019-03-29T15:59:28.816Z,39.40
2019-03-29T16:01:57.974Z,39.50
2019-03-29T16:04:26.821Z,39.70
2019-03-29T16:06:53.156Z,40.00
2019-03-29T16:09:19.619Z,40.00
2019-03-29T16:11:45.821Z,40.30
2019-03-29T16:14:12.021Z,40.50
2019-03-29T16:16:41.070Z,40.70
2019-03-29T16:19:07.231Z,40.90
2019-03-29T16:21:33.444Z,41.10
2019-03-29T16:23:59.632Z,41.30
2019-03-29T16:26:25.910Z,41.60
2019-03-29T16:28:52.100Z,41.90
2019-03-29T16:31:18.395Z,42.00
2019-03-29T16:33:44.805Z,42.10
2019-03-29T16:36:11.096Z,42.10
2019-03-29T16:38:39.955Z,42.40
2019-03-29T16:41:06.112Z,42.60
2019-03-29T16:43:32.434Z,42.80
2019-03-29T16:45:58.996Z,43.40
2019-03-29T16:48:25.199Z,43.10
2019-03-29T16:50:51.357Z,43.20
2019-03-29T16:53:17.663Z,43.40
2019-03-29T16:55:43.867Z,43.60
2019-03-29T16:58:10.070Z,43.70
2019-03-29T17:00:36.557Z,43.90
2019-03-29T17:03:02.981Z,44.00
2019-03-29T17:05:29.929Z,44.10
2019-03-29T17:07:56.136Z,44.30
2019-03-29T17:10:22.440Z,44.60
2019-03-29T17:12:51.921Z,44.80
2019-03-29T17:15:19.592Z,45.20
2019-03-29T17:17:45.831Z,45.50
2019-03-29T17:20:12.259Z,45.80
2019-03-29T17:22:44.865Z,46.10
2019-03-29T17:25:11.120Z,46.30
2019-03-29T17:27:56.087Z,46.70
2019-03-29T17:30:39.021Z,46.90
2019-03-29T17:33:05.223Z,47.30
2019-03-29T17:35:31.397Z,47.60
2019-03-29T17:37:57.624Z,47.90
2019-03-29T17:40:23.842Z,48.20
2019-03-29T17:42:52.609Z,48.50
2019-03-29T17:45:18.786Z,48.60
2019-03-29T17:47:45.024Z,48.90
2019-03-29T17:50:11.305Z,49.00
2019-03-29T17:52:37.482Z,49.40
2019-03-29T17:55:04.882Z,50.10
2019-03-29T17:57:49.746Z,49.80
2019-03-29T18:00:18.259Z,50.00
2019-03-29T18:02:47.147Z,50.30
2019-03-29T18:05:13.376Z,50.60
2019-03-29T18:07:39.573Z,50.80
2019-03-29T18:10:07.454Z,51.00
2019-03-29T18:12:33.637Z,51.20
2019-03-29T18:14:59.812Z,51.30
2019-03-29T18:17:25.991Z,51.70
2019-03-29T18:19:53.328Z,51.90
2019-03-29T18:22:19.499Z,52.20
2019-03-29T18:24:45.728Z,52.40
2019-03-29T18:27:11.902Z,52.40
2019-03-29T18:29:38.092Z,52.70
2019-03-29T18:32:04.264Z,53.00
2019-03-29T18:34:30.691Z,53.20
2019-03-29T18:36:57.368Z,53.40
2019-03-29T18:39:42.442Z,53.50
2019-03-29T18:42:11.366Z,53.60
2019-03-29T18:44:37.583Z,53.80
2019-03-29T18:47:03.796Z,53.90
2019-03-29T18:49:32.520Z,54.10
2019-03-29T18:51:58.694Z,54.40
2019-03-29T18:54:24.934Z,54.40
2019-03-29T18:56:51.113Z,54.70
2019-03-29T18:59:17.340Z,54.90
2019-03-29T19:01:43.604Z,55.00
2019-03-29T19:04:09.983Z,55.20
2019-03-29T19:06:36.166Z,55.40
2019-03-29T19:09:03.957Z,55.60
2019-03-29T19:11:30.164Z,55.70
2019-03-29T19:14:14.886Z,55.80
2019-03-29T19:16:41.068Z,56.00
2019-03-29T19:19:10.164Z,56.10
2019-03-29T19:21:35.362Z,56.20
2019-03-29T19:24:01.553Z,56.30
2019-03-29T19:26:30.583Z,56.40
2019-03-29T19:28:59.450Z,56.60
2019-03-29T19:31:25.616Z,56.60
2019-03-29T19:33:51.848Z,56.70
2019-03-29T19:36:20.991Z,56.70
2019-03-29T19:38:47.226Z,56.90
2019-03-29T19:41:13.395Z,56.90
2019-03-29T19:43:39.604Z,57.20
2019-03-29T19:46:05.885Z,57.10
2019-03-29T19:48:32.071Z,57.30
2019-03-29T19:50:58.271Z,57.40
2019-03-29T19:53:27.375Z,57.60
2019-03-29T19:56:08.997Z,57.80
2019-03-29T19:58:35.257Z,57.80
2019-03-29T20:01:01.532Z,58.00
2019-03-29T20:03:27.905Z,58.10
2019-03-29T20:05:54.180Z,58.20
2019-03-29T20:08:20.460Z,58.30
2019-03-29T20:10:46.847Z,58.40
2019-03-29T20:13:13.019Z,58.50
2019-03-29T20:15:39.425Z,58.60
2019-03-29T20:18:08.307Z,58.50
2019-03-29T20:20:34.642Z,58.70
2019-03-29T20:23:19.598Z,58.80
2019-03-29T20:25:45.845Z,58.90
2019-03-29T20:28:12.089Z,59.60
2019-03-29T20:30:40.999Z,59.00
2019-03-29T20:33:11.791Z,59.10
2019-03-29T20:35:37.925Z,59.30
2019-03-29T20:38:04.114Z,59.30
2019-03-29T20:40:32.065Z,59.30
2019-03-29T20:42:58.358Z,59.50
2019-03-29T20:45:24.573Z,59.60
2019-03-29T20:47:52.017Z,59.70
2019-03-29T20:50:21.015Z,59.70
2019-03-29T20:52:47.405Z,59.80
2019-03-29T20:55:16.219Z,60.00
2019-03-29T20:57:42.552Z,60.00
2019-03-29T21:00:10.436Z,60.20
2019-03-29T21:02:39.529Z,60.10
2019-03-29T21:05:09.072Z,60.20
2019-03-29T21:07:35.332Z,60.30
2019-03-29T21:10:03.261Z,60.20
2019-03-29T21:12:29.511Z,60.30
2019-03-29T21:14:55.791Z,60.30
2019-03-29T21:17:22.006Z,60.40
2019-03-29T21:19:51.128Z,60.50
2019-03-29T21:22:17.351Z,60.50
2019-03-29T21:24:46.237Z,60.70
2019-03-29T21:27:12.446Z,60.90
2019-03-29T21:29:38.680Z,60.90
2019-03-29T21:32:04.871Z,60.80
2019-03-29T21:34:31.077Z,60.90
2019-03-29T21:36:57.350Z,61.00
2019-03-29T21:39:26.320Z,61.40
2019-03-29T21:41:52.553Z,61.40
2019-03-29T21:44:18.803Z,61.60
2019-03-29T21:46:44.992Z,61.50
2019-03-29T21:49:11.316Z,61.70
2019-03-29T21:51:37.601Z,61.60
2019-03-29T21:54:03.751Z,61.80
2019-03-29T21:56:29.922Z,61.80
2019-03-29T21:58:56.096Z,62.00
2019-03-29T22:01:22.328Z,62.00
2019-03-29T22:03:51.080Z,62.20
2019-03-29T22:06:17.266Z,62.30
2019-03-29T22:08:43.652Z,62.50
2019-03-29T22:11:09.818Z,62.40
2019-03-29T22:13:36.032Z,62.60
2019-03-29T22:16:02.225Z,62.60
2019-03-29T22:18:37.860Z,62.70
2019-03-29T22:20:56.501Z,62.80
2019-03-29T22:23:23.104Z,62.80
2019-03-29T22:25:49.804Z,63.00
2019-03-29T22:28:34.424Z,64.10
2019-03-29T22:31:03.208Z,64.20
2019-03-29T22:33:29.343Z,64.40
2019-03-29T22:35:55.549Z,64.40
2019-03-29T22:38:21.736Z,64.50
2019-03-29T22:40:47.972Z,64.60
2019-03-29T22:43:14.175Z,64.60
2019-03-29T22:45:40.389Z,64.70
2019-03-29T22:48:06.766Z,64.80
2019-03-29T22:50:32.931Z,64.70
2019-03-29T22:52:59.099Z,64.80
2019-03-29T22:55:25.356Z,64.80
2019-03-29T22:57:51.535Z,64.90
2019-03-29T23:00:21.529Z,64.90
2019-03-29T23:03:03.638Z,65.00
2019-03-29T23:05:32.681Z,65.10
2019-03-29T23:07:58.859Z,65.10
2019-03-29T23:10:27.594Z,65.20
2019-03-29T23:12:53.760Z,65.30
2019-03-29T23:15:19.947Z,65.40
2019-03-29T23:17:46.100Z,65.40
2019-03-29T23:20:12.397Z,65.50
2019-03-29T23:22:38.620Z,65.50
2019-03-29T23:25:05.072Z,65.60
2019-03-29T23:27:31.286Z,65.70
2019-03-29T23:29:57.486Z,65.70
2019-03-29T23:32:26.300Z,65.80
2019-03-29T23:34:52.574Z,65.90
2019-03-29T23:37:21.735Z,65.90
2019-03-29T23:39:47.917Z,66.00
2019-03-29T23:42:16.865Z,66.10
2019-03-29T23:44:43.023Z,66.30
2019-03-29T23:47:09.213Z,66.40
2019-03-29T23:49:37.991Z,66.30
2019-03-29T23:52:04.152Z,66.40
2019-03-29T23:54:30.314Z,66.50
2019-03-29T23:56:56.613Z,66.60
2019-03-29T23:59:22.749Z,66.70
